Nearby METAR Reports

 

EGNS - Isle Of Man/Rona, United Kingdom
Distance from station: SSW 16mi, 26km
Updated: 28/05/2024 16:50
Partly cloudy
Partly cloudy
 Wind from SW
Wind: SW 9 mph, 15 km/h
Temperature: 15°C
Dew Point: 13°C
Humidity: 88%
Barometer: 1004 hPa
Clouds: Partly cloudy
Visibility: 6 miles, 10 km
Cloud details: Few Clouds 671 m
Partly cloudy 1219 m
2024/05/28 15:50 EGNS 281550Z 22008KT 9999 FEW022 SCT040 15/13 Q1004 NOSIG
EGAC - Belfast Harbour, United Kingdom
Distance from station: WNW 57mi, 92km
Updated: 28/05/2024 16:20
Thunderstorm
Thunderstorm
 Wind from SW
Wind: SW 13 mph, 20 km/h
Temperature: 19°C
Dew Point: 12°C
Humidity: 64%
Barometer: 1002 hPa
Clouds: Thunderstorm
Visibility: 6 miles, 10 km
Cloud details: Overcast 823 m
2024/05/28 15:20 EGAC 281520Z AUTO 23011KT 200V260 9999 OVC027/// //////CB 19/12 Q1002
 
EGAA - Belfast/Aldergro, United Kingdom
Distance from station: WNW 71mi, 114km
Updated: 28/05/2024 16:50
Light rain, Drizzle, Partly cloudy
Light rain, Drizzle, Partly cloudy
 Wind from W
Wind: W 14 mph, 22 km/h
Temperature: 14°C
Dew Point: 13°C
Humidity: 94%
Barometer: 1003 hPa
Summary: Light rain, Drizzle
Clouds: Partly cloudy
Visibility: 6 miles, 10 km
Cloud details: Few Clouds 122 m
Partly cloudy 853 m
2024/05/28 15:50 EGAA 281550Z 27012KT 9999 -RADZ FEW004 SCT028CB 14/13 Q1003 REUP RERA
EGNH - Blackpool Airpor, United Kingdom
Distance from station: ESE 73mi, 117km
Updated: 28/05/2024 16:50
Mostly cloudy
Mostly cloudy
 Wind from W
Wind: W 14 mph, 22 km/h
Temperature: 15°C
Dew Point: 14°C
Humidity: 94%
Barometer: 1005 hPa
Clouds: Mostly cloudy
Visibility: 6 miles, 10 km
Cloud details: Few Clouds 853 m
Mostly cloudy 1067 m
2024/05/28 15:50 EGNH 281550Z 26012KT 9999 FEW028 BKN035 15/14 Q1005
 
EGOV - Valley Raf, United Kingdom
Distance from station: S 73mi, 118km
Updated: 28/05/2024 17:01
Rain showers, Mostly cloudy
Rain showers, Mostly cloudy
 Wind from SSW
Wind: SSW 18 mph, 30 km/h
Temperature: 14°C
Dew Point: 13°C
Humidity: 94%
Barometer: 1005 hPa
Summary: Rain Showers
Clouds: Mostly cloudy
Visibility: 2 miles, 4 km
Cloud details: Few Clouds 152 m
Mostly cloudy 975 m
2024/05/28 16:01 EGOV 281601Z 21016KT 4000 SHRA FEW005 BKN032 14/13 Q1005 TEMPO 9999 NSW RMK GRN TEMPO BLU
EGNO - Wharton, United Kingdom
Distance from station: ESE 78mi, 125km
Updated: 24/05/2024 17:50
NOT Current
Mostly cloudy
Mostly cloudy
 Wind from W
Wind: W 5 mph, 7 km/h
Temperature: 12°C
Dew Point: 9°C
Humidity: 82%
Barometer: 1018 hPa
Clouds: Mostly cloudy
Visibility: 6 miles, 10 km
Cloud details: Few Clouds 305 m
Partly cloudy 457 m
Mostly cloudy 1158 m
2024/05/24 16:50 EGNO 241650Z 28004KT 230V320 9999 FEW010 SCT015 BKN038 12/09 Q1018
 
EGOW - Woodvale Raf, United Kingdom
Distance from station: SE 79mi, 127km
Updated: 28/05/2024 11:20
NOT Current
Mostly cloudy
Mostly cloudy
 Wind from SSE
Wind: SSE 15 mph, 24 km/h
Temperature: 14°C
Dew Point: 13°C
Humidity: 94%
Barometer: 1007 hPa
Clouds: Mostly cloudy
Visibility: 6 miles, 10 km
Cloud details: Mostly cloudy 244 m
2024/05/28 10:20 EGOW 281020Z 15013KT 9999 BKN008 14/13 Q1007 RMK GRN
EGPK - Prestwick(Civ/Na, United Kingdom
Distance from station: N 82mi, 132km
Updated: 28/05/2024 16:50
Mostly cloudy
Mostly cloudy
 Wind from SW
Wind: SW 7 mph, 11 km/h
Temperature: 17°C
Dew Point: 13°C
Humidity: 77%
Barometer: 1002 hPa
Clouds: Mostly cloudy
Visibility: 6 miles, 10 km
Cloud details: Few Clouds 457 m
Partly cloudy 610 m
Mostly cloudy 1158 m
2024/05/28 15:50 EGPK 281550Z 23006KT 160V290 9999 FEW015 SCT020 BKN038 17/13 Q1002
 
EGCK - Caernarfon, United Kingdom
Distance from station: S 84mi, 136km
Updated: 28/05/2024 16:50
Mostly cloudy
Mostly cloudy
 Wind from SW
Wind: SW 15 mph, 24 km/h
Temperature: 17°C
Dew Point: 13°C
Humidity: 77%
Barometer: 1006 hPa
Clouds: Mostly cloudy
Visibility: 6 miles, 10 km
Cloud details: Few Clouds 518 m
Mostly cloudy 701 m
Mostly cloudy 1097 m
2024/05/28 15:50 EGCK 281550Z 22013KT 9999 FEW017 BKN023 BKN036 17/13 Q1006
EGEC - Campbeltown, United Kingdom
Distance from station: NNW 90mi, 144km
Updated: 28/05/2024 16:20
Mostly cloudy
Mostly cloudy
 Wind from W
Wind: W 8 mph, 13 km/h
Temperature: 15°C
Dew Point: 13°C
Humidity: 88%
Barometer: 1002 hPa
Clouds: Mostly cloudy
Visibility: 6 miles, 10 km
Cloud details: Few Clouds 213 m
Mostly cloudy 335 m
2024/05/28 15:20 EGEC 281520Z 28007KT 9999 FEW007 BKN011 15/13 Q1002
 
EIDW - Dublin Airport, Ireland
Distance from station: SW 93mi, 150km
Updated: 28/05/2024 17:00
Mostly cloudy
Mostly cloudy
 Wind from W
Wind: W 20 mph, 31 km/h
Temperature: 15°C
Dew Point: 10°C
Humidity: 72%
Barometer: 1005 hPa
Clouds: Mostly cloudy
Visibility: 6 miles, 10 km
Cloud details: Few Clouds 549 m
Few Clouds 762 m
Partly cloudy 853 m
Mostly cloudy 1829 m
2024/05/28 16:00 EIDW 281600Z 27017KT 9999 FEW018 FEW025CB SCT028 BKN060 15/10 Q1005 NOSIG
EGOM - Spadeadam, United Kingdom
Distance from station: NE 95mi, 152km
Updated: 28/05/2024 16:50
Light rain, Overcast
Light rain, Overcast
 Wind from SW
Wind: SW 8 mph, 13 km/h
Temperature: 13°C
Dew Point: 13°C
Humidity: 100%
Barometer: 1003 hPa
Summary: Light rain
Clouds: Overcast
Visibility: 1 mile, 2 km
Cloud details: Overcast 152 m
2024/05/28 15:50 EGOM 281550Z AUTO 22007KT 2100 -RA OVC005/// 13/13 Q1003
 
EGGP - Liverpool Airpor, United Kingdom
Distance from station: SE 98mi, 157km
Updated: 28/05/2024 16:50
Mostly cloudy
Mostly cloudy
 Wind from SW
Wind: SW 12 mph, 19 km/h
Temperature: 19°C
Dew Point: 14°C
Humidity: 73%
Barometer: 1005 hPa
Clouds: Mostly cloudy
Visibility: 6 miles, 10 km
Cloud details: Few Clouds 671 m
Mostly cloudy 1067 m
2024/05/28 15:50 EGGP 281550Z 23010KT 9999 FEW022 BKN035 19/14 Q1005
Free Website Hit Counter
Free website hit counter